Time;durP1;ratioP1;P1;durP2;ratioP2;P2;SDS_P1;SDS_P2;PMS_P1;PMS_P2;Temp;Humidity;BMP_temperature;BMP_pressure;BME280_temperature;BME280_humidity;BME280_pressure;Samples;Min_cycle;Max_cycle;Signal;HPM_P1;HPM_P2
2024/01/31 00:02:23;;;;;;;3.92;3.63;;;4.20;99.90;;;;;;5061964;28;20225;-78
2024/01/31 00:04:51;;;;;;;3.97;3.70;;;4.10;99.90;;;;;;5062806;28;20762;-76
2024/01/31 00:07:17;;;;;;;3.83;3.63;;;4.10;99.90;;;;;;5058001;28;20232;-77
2024/01/31 00:09:44;;;;;;;3.72;3.53;;;4.10;99.90;;;;;;5058488;28;20198;-77
2024/01/31 00:12:11;;;;;;;4.00;3.70;;;4.10;99.90;;;;;;5060499;28;20214;-77
2024/01/31 00:14:39;;;;;;;3.65;3.45;;;4.10;99.90;;;;;;5061475;28;20256;-76
2024/01/31 00:17:07;;;;;;;3.80;3.50;;;4.10;99.90;;;;;;5055644;28;20222;-77
2024/01/31 00:19:34;;;;;;;4.18;3.88;;;4.10;99.90;;;;;;5056772;28;20219;-78
2024/01/31 00:22:01;;;;;;;3.78;3.58;;;4.00;99.90;;;;;;5059313;28;20665;-76
2024/01/31 00:24:28;;;;;;;3.95;3.65;;;4.00;99.90;;;;;;5058290;28;20578;-77
2024/01/31 00:26:56;;;;;;;4.50;4.20;;;4.00;99.90;;;;;;5061296;28;20226;-76
2024/01/31 00:29:23;;;;;;;4.40;4.10;;;4.00;99.90;;;;;;5053453;28;20747;-77
2024/01/31 00:31:50;;;;;;;3.50;3.30;;;4.00;99.90;;;;;;5058771;28;20226;-78
2024/01/31 00:34:17;;;;;;;4.10;3.88;;;4.00;99.90;;;;;;5059924;28;20264;-77
2024/01/31 00:36:44;;;;;;;3.92;3.72;;;4.00;99.90;;;;;;5060675;28;20214;-76
2024/01/31 00:39:11;;;;;;;3.65;3.35;;;3.90;99.90;;;;;;5058600;28;20315;-76
2024/01/31 00:41:38;;;;;;;4.20;3.90;;;3.90;99.90;;;;;;5057712;28;20309;-78
2024/01/31 00:44:05;;;;;;;3.92;3.67;;;4.00;99.90;;;;;;5061137;28;20240;-76
2024/01/31 00:46:32;;;;;;;3.72;3.53;;;4.00;99.90;;;;;;5055383;28;20221;-77
2024/01/31 00:49:00;;;;;;;4.25;3.95;;;4.00;99.90;;;;;;5056658;28;20246;-77
2024/01/31 00:51:28;;;;;;;3.53;3.33;;;4.10;99.90;;;;;;5057791;28;20254;-77
2024/01/31 00:53:55;;;;;;;4.13;3.80;;;4.10;99.90;;;;;;5060590;28;20248;-77
2024/01/31 00:56:22;;;;;;;4.00;3.70;;;4.10;99.90;;;;;;5058031;28;20230;-77
2024/01/31 00:58:49;;;;;;;4.47;4.18;;;4.10;99.90;;;;;;5057453;28;20455;-78
2024/01/31 01:01:16;;;;;;;4.30;3.90;;;4.00;99.90;;;;;;5055072;28;20217;-77
2024/01/31 01:03:43;;;;;;;3.88;3.67;;;4.00;99.90;;;;;;5058674;28;20237;-76
2024/01/31 01:06:10;;;;;;;4.50;4.20;;;3.90;99.90;;;;;;5058126;28;20219;-77
2024/01/31 01:08:38;;;;;;;4.43;4.05;;;3.90;99.90;;;;;;5059646;28;20221;-77
2024/01/31 01:11:06;;;;;;;4.00;3.70;;;3.90;99.90;;;;;;5057763;28;20214;-75
2024/01/31 01:13:33;;;;;;;4.13;3.83;;;3.90;99.90;;;;;;5059760;28;20190;-76
2024/01/31 01:16:00;;;;;;;4.05;3.78;;;3.90;99.90;;;;;;5063784;28;20223;-76
2024/01/31 01:18:26;;;;;;;4.15;3.85;;;4.00;99.90;;;;;;5059674;28;20230;-77
2024/01/31 01:20:53;;;;;;;4.00;3.70;;;4.00;99.90;;;;;;5057974;28;20218;-77
2024/01/31 01:23:20;;;;;;;3.88;3.67;;;4.00;99.90;;;;;;5060556;28;20206;-77
2024/01/31 01:25:49;;;;;;;3.78;3.47;;;4.00;99.90;;;;;;5063277;28;20733;-77
2024/01/31 01:28:16;;;;;;;3.83;3.53;;;3.90;99.90;;;;;;5062121;28;20778;-76
2024/01/31 01:30:43;;;;;;;3.65;3.45;;;4.00;99.90;;;;;;5059598;28;20222;-76
2024/01/31 01:33:10;;;;;;;3.90;3.70;;;3.90;99.90;;;;;;5059857;28;20256;-75
2024/01/31 01:35:36;;;;;;;4.50;4.20;;;3.90;99.90;;;;;;5058580;28;20271;-76
2024/01/31 01:38:04;;;;;;;4.32;4.10;;;3.90;99.90;;;;;;5060824;28;20218;-76
2024/01/31 01:40:31;;;;;;;3.65;3.40;;;3.90;99.90;;;;;;5062175;28;21002;-75
2024/01/31 01:42:59;;;;;;;4.10;3.80;;;3.90;99.90;;;;;;5059934;28;20263;-77
2024/01/31 01:45:29;;;;;;;3.40;3.20;;;3.80;99.90;;;;;;5061567;28;21010;-76
2024/01/31 01:47:56;;;;;;;3.05;2.95;;;3.80;99.90;;;;;;5061019;28;20292;-77
2024/01/31 01:50:24;;;;;;;3.55;3.35;;;3.80;99.90;;;;;;5062287;28;20303;-76
2024/01/31 01:52:51;;;;;;;4.25;4.00;;;3.70;99.90;;;;;;5060488;28;20653;-77
2024/01/31 01:55:19;;;;;;;3.85;3.55;;;3.70;99.90;;;;;;5062695;28;20233;-76
2024/01/31 01:57:46;;;;;;;4.25;3.95;;;3.60;99.90;;;;;;5059844;28;20419;-76
2024/01/31 02:00:15;;;;;;;4.30;3.90;;;3.60;99.90;;;;;;5063665;28;20598;-76
2024/01/31 02:02:43;;;;;;;4.00;3.70;;;3.60;99.90;;;;;;5063154;28;20909;-76
2024/01/31 02:05:10;;;;;;;3.83;3.63;;;3.60;99.90;;;;;;5061472;28;20218;-77
2024/01/31 02:07:37;;;;;;;4.03;3.72;;;3.50;99.90;;;;;;5060234;28;20213;-77
2024/01/31 02:10:05;;;;;;;3.63;3.42;;;3.50;99.90;;;;;;5061742;28;20198;-77
2024/01/31 02:12:32;;;;;;;3.78;3.58;;;3.50;99.90;;;;;;5059599;28;20881;-77
2024/01/31 02:14:59;;;;;;;4.40;4.10;;;3.40;99.90;;;;;;5062516;28;20260;-76
2024/01/31 02:17:28;;;;;;;4.22;3.83;;;3.40;99.90;;;;;;5059100;28;20213;-77
2024/01/31 02:19:55;;;;;;;3.67;3.45;;;3.40;99.90;;;;;;5061297;28;20226;-76
2024/01/31 02:22:23;;;;;;;3.60;3.40;;;3.40;99.90;;;;;;5055542;28;20222;-76
2024/01/31 02:24:50;;;;;;;4.07;3.78;;;3.40;99.90;;;;;;5055010;28;20276;-76
2024/01/31 02:27:17;;;;;;;3.95;3.67;;;3.40;99.90;;;;;;5061094;28;20226;-76
2024/01/31 02:29:44;;;;;;;3.78;3.58;;;3.50;99.90;;;;;;5055128;28;20279;-77
2024/01/31 02:32:11;;;;;;;3.92;3.63;;;3.40;99.90;;;;;;5057877;28;20268;-76
2024/01/31 02:34:38;;;;;;;3.95;3.72;;;3.40;99.90;;;;;;5060441;28;20620;-76
2024/01/31 02:37:05;;;;;;;4.20;3.90;;;3.40;99.90;;;;;;5055697;28;20391;-76
2024/01/31 02:39:34;;;;;;;3.67;3.47;;;3.40;99.90;;;;;;5057461;28;20366;-76
2024/01/31 02:42:01;;;;;;;4.22;3.90;;;3.40;99.90;;;;;;5059686;28;20304;-76
2024/01/31 02:44:28;;;;;;;3.85;3.60;;;3.50;99.90;;;;;;5053444;28;20270;-76
2024/01/31 02:46:55;;;;;;;4.20;3.90;;;3.40;99.90;;;;;;5058574;28;20798;-74
2024/01/31 02:49:22;;;;;;;3.95;3.67;;;3.40;99.90;;;;;;5049986;28;20301;-77
2024/01/31 02:51:49;;;;;;;3.70;3.50;;;3.40;99.90;;;;;;5056262;28;20218;-77
2024/01/31 02:54:15;;;;;;;4.00;3.80;;;3.40;99.90;;;;;;5055558;28;20269;-75
2024/01/31 02:56:43;;;;;;;4.30;4.00;;;3.40;99.90;;;;;;5059452;28;20226;-77
2024/01/31 02:59:10;;;;;;;4.03;3.72;;;3.40;99.90;;;;;;5057206;28;20230;-77
2024/01/31 03:01:44;;;;;;;4.30;3.88;;;3.40;99.90;;;;;;5053484;28;20226;-77
2024/01/31 03:04:11;;;;;;;4.22;3.92;;;3.30;99.90;;;;;;5056994;28;20282;-76
2024/01/31 03:06:38;;;;;;;4.00;3.70;;;3.30;99.90;;;;;;5053166;28;20316;-77
2024/01/31 03:09:05;;;;;;;4.10;3.90;;;3.20;99.90;;;;;;5056166;28;20287;-77
2024/01/31 03:11:33;;;;;;;3.75;3.55;;;3.20;99.90;;;;;;5053867;28;20227;-77
2024/01/31 03:14:01;;;;;;;4.10;3.83;;;3.20;99.90;;;;;;5054976;28;20259;-76
2024/01/31 03:16:28;;;;;;;4.03;3.63;;;3.10;99.90;;;;;;5060570;28;20271;-77
2024/01/31 03:18:56;;;;;;;4.40;4.10;;;3.10;99.90;;;;;;5056530;28;20268;-76
2024/01/31 03:21:23;;;;;;;3.97;3.78;;;3.20;99.90;;;;;;5053542;28;20225;-77
2024/01/31 03:23:51;;;;;;;4.10;3.90;;;3.10;99.90;;;;;;5054477;28;20237;-76
2024/01/31 03:26:18;;;;;;;4.40;4.10;;;3.10;99.90;;;;;;5056904;28;20863;-76
2024/01/31 03:28:45;;;;;;;3.90;3.60;;;3.10;99.90;;;;;;5057246;28;20222;-76
2024/01/31 03:31:13;;;;;;;4.35;4.05;;;3.00;99.90;;;;;;5056483;28;20222;-76
2024/01/31 03:33:40;;;;;;;4.13;3.90;;;3.00;99.90;;;;;;5061068;28;20206;-76
2024/01/31 03:36:11;;;;;;;4.03;3.80;;;3.00;99.90;;;;;;5055269;28;20234;-77
2024/01/31 03:38:38;;;;;;;4.30;4.10;;;3.00;99.90;;;;;;5055227;28;20233;-77
2024/01/31 03:41:05;;;;;;;4.30;4.00;;;3.00;99.90;;;;;;5055450;28;20217;-76
2024/01/31 03:43:32;;;;;;;4.20;4.00;;;3.00;99.90;;;;;;5054805;28;20233;-77
2024/01/31 03:46:00;;;;;;;4.13;3.92;;;3.00;99.90;;;;;;5053982;28;20283;-77
2024/01/31 03:48:28;;;;;;;4.78;4.45;;;3.00;99.90;;;;;;5059320;28;20967;-77
2024/01/31 03:50:58;;;;;;;4.45;4.15;;;2.90;99.90;;;;;;5056697;28;20217;-77
2024/01/31 03:53:25;;;;;;;4.07;3.78;;;3.00;99.90;;;;;;5060738;28;20206;-77
2024/01/31 03:55:52;;;;;;;4.57;4.28;;;3.00;99.90;;;;;;5055775;28;20769;-77
2024/01/31 03:58:19;;;;;;;3.90;3.70;;;3.00;99.90;;;;;;5056312;28;20724;-77
2024/01/31 04:00:46;;;;;;;4.65;4.35;;;3.00;99.90;;;;;;5059576;28;20704;-76
2024/01/31 04:03:13;;;;;;;4.68;4.38;;;3.00;99.90;;;;;;5058260;28;20757;-76
2024/01/31 04:05:43;;;;;;;4.63;4.30;;;3.00;99.90;;;;;;5058697;28;20824;-77
2024/01/31 04:08:10;;;;;;;4.20;3.90;;;3.00;99.90;;;;;;5056850;28;20222;-77
2024/01/31 04:10:37;;;;;;;4.53;4.13;;;3.00;99.90;;;;;;5053330;28;20291;-77
2024/01/31 04:13:05;;;;;;;4.55;4.25;;;3.00;99.90;;;;;;5058777;28;20294;-77
2024/01/31 04:15:32;;;;;;;3.83;3.53;;;2.90;99.90;;;;;;5059645;28;20222;-77
2024/01/31 04:18:00;;;;;;;4.35;4.05;;;2.90;99.90;;;;;;5054554;28;20218;-76
2024/01/31 04:20:27;;;;;;;4.70;4.40;;;2.90;99.90;;;;;;5057286;28;20230;-77
2024/01/31 04:22:55;;;;;;;3.88;3.67;;;2.90;99.90;;;;;;5059766;28;20259;-77
2024/01/31 04:25:22;;;;;;;4.80;4.50;;;2.90;99.90;;;;;;5058234;28;21057;-77
2024/01/31 04:27:49;;;;;;;4.30;3.90;;;2.90;99.90;;;;;;5053660;28;20653;-77
2024/01/31 04:30:16;;;;;;;4.20;3.90;;;3.00;99.90;;;;;;5058162;28;20422;-77
2024/01/31 04:32:43;;;;;;;4.30;4.00;;;2.90;99.90;;;;;;5057426;28;20279;-77
2024/01/31 04:35:10;;;;;;;3.95;3.70;;;3.00;99.90;;;;;;5057963;28;20198;-78
2024/01/31 04:37:37;;;;;;;4.72;4.32;;;3.00;99.90;;;;;;5056259;28;20311;-76
2024/01/31 04:40:07;;;;;;;4.97;4.57;;;2.90;99.90;;;;;;5059381;28;20198;-77
2024/01/31 04:42:34;;;;;;;4.20;3.90;;;2.90;99.90;;;;;;5061646;28;20221;-77
2024/01/31 04:45:01;;;;;;;4.07;3.80;;;2.90;99.90;;;;;;5060449;28;20335;-76
2024/01/31 04:47:28;;;;;;;4.60;4.30;;;2.90;99.90;;;;;;5059047;28;20206;-76
2024/01/31 04:49:57;;;;;;;4.43;4.13;;;2.90;99.90;;;;;;5062057;28;20206;-77
2024/01/31 04:52:24;;;;;;;4.88;4.57;;;2.80;99.90;;;;;;5063429;28;20222;-77
2024/01/31 04:54:51;;;;;;;4.65;4.35;;;2.80;99.90;;;;;;5062208;28;20203;-75
2024/01/31 04:57:19;;;;;;;4.57;4.28;;;2.80;99.90;;;;;;5060524;28;20296;-76
2024/01/31 04:59:46;;;;;;;4.78;4.47;;;2.80;99.90;;;;;;5058312;28;20624;-76
2024/01/31 05:02:13;;;;;;;5.20;4.80;;;2.80;99.90;;;;;;5058313;28;20225;-77
2024/01/31 05:04:41;;;;;;;5.50;5.10;;;2.80;99.90;;;;;;5063830;28;20214;-77
2024/01/31 05:07:08;;;;;;;5.30;4.90;;;2.70;99.90;;;;;;5065740;28;20226;-77
2024/01/31 05:09:35;;;;;;;5.38;4.97;;;2.70;99.90;;;;;;5059835;28;20222;-75
2024/01/31 05:12:02;;;;;;;6.25;5.25;;;2.60;99.90;;;;;;5054559;28;21108;-76
2024/01/31 05:14:31;;;;;;;4.95;4.55;;;2.60;99.90;;;;;;5059839;28;20293;-77
2024/01/31 05:16:58;;;;;;;4.50;4.20;;;2.60;99.90;;;;;;5062322;28;20217;-77
2024/01/31 05:19:25;;;;;;;4.72;4.43;;;2.50;99.90;;;;;;5059778;28;20226;-76
2024/01/31 05:21:53;;;;;;;4.60;4.30;;;2.50;99.90;;;;;;5056338;28;20226;-77
2024/01/31 05:24:20;;;;;;;4.82;4.43;;;2.50;99.90;;;;;;5065858;28;20856;-77
2024/01/31 05:26:48;;;;;;;4.93;4.53;;;2.50;99.90;;;;;;5065816;28;20279;-77
2024/01/31 05:29:15;;;;;;;4.95;4.55;;;2.50;99.90;;;;;;5058524;28;20218;-77
2024/01/31 05:31:44;;;;;;;5.72;5.03;;;2.50;99.90;;;;;;5064863;28;20233;-76
2024/01/31 05:34:11;;;;;;;4.80;4.47;;;2.50;99.90;;;;;;5062898;28;20206;-77
2024/01/31 05:36:38;;;;;;;4.63;4.32;;;2.50;99.90;;;;;;5058889;28;20255;-76
2024/01/31 05:39:05;;;;;;;4.43;4.15;;;2.50;99.90;;;;;;5057397;28;20279;-77
2024/01/31 05:41:32;;;;;;;4.55;4.25;;;2.50;99.90;;;;;;5059884;28;20300;-77
2024/01/31 05:43:59;;;;;;;4.28;3.97;;;2.50;99.90;;;;;;5061935;28;20199;-77
2024/01/31 05:46:26;;;;;;;4.40;4.03;;;2.50;99.90;;;;;;5063421;28;20253;-77
2024/01/31 05:48:56;;;;;;;4.80;4.50;;;2.50;99.90;;;;;;5062205;28;20271;-76
2024/01/31 05:51:23;;;;;;;4.65;4.28;;;2.50;99.90;;;;;;5060861;28;20226;-76
2024/01/31 05:53:50;;;;;;;4.70;4.30;;;2.40;99.90;;;;;;5063775;28;20194;-77
2024/01/31 05:56:17;;;;;;;4.68;4.30;;;2.40;99.90;;;;;;5063484;28;20283;-77
2024/01/31 05:58:44;;;;;;;4.00;3.70;;;2.40;99.90;;;;;;5061880;28;21843;-76
2024/01/31 06:01:11;;;;;;;4.72;4.43;;;2.40;99.90;;;;;;5058064;28;20876;-76
2024/01/31 06:03:38;;;;;;;4.38;4.07;;;2.50;99.90;;;;;;5057611;28;20207;-77
2024/01/31 06:06:07;;;;;;;5.15;4.75;;;2.40;99.90;;;;;;5061735;28;20218;-76
2024/01/31 06:08:34;;;;;;;4.78;4.47;;;2.50;99.90;;;;;;5062667;28;20301;-76
2024/01/31 06:11:03;;;;;;;5.07;4.75;;;2.50;99.90;;;;;;5059331;28;20249;-77
2024/01/31 06:13:30;;;;;;;5.40;5.00;;;2.40;99.90;;;;;;5059404;28;20213;-76
2024/01/31 06:15:57;;;;;;;5.10;4.70;;;2.40;99.90;;;;;;5062556;28;20245;-77
2024/01/31 06:18:24;;;;;;;5.60;5.20;;;2.40;99.90;;;;;;5059682;28;20222;-77
2024/01/31 06:20:51;;;;;;;4.60;4.20;;;2.40;99.90;;;;;;5056354;28;21284;-76
2024/01/31 06:23:20;;;;;;;5.68;5.18;;;2.30;99.90;;;;;;5063036;28;20218;-77
2024/01/31 06:25:48;;;;;;;4.90;4.50;;;2.30;99.90;;;;;;5060782;28;20753;-77
2024/01/31 06:28:15;;;;;;;5.05;4.75;;;2.30;99.90;;;;;;5061857;28;20275;-76
2024/01/31 06:30:44;;;;;;;4.90;4.50;;;2.30;99.90;;;;;;5058669;28;20276;-77
2024/01/31 06:33:11;;;;;;;5.28;4.88;;;2.30;99.90;;;;;;5061590;28;20210;-76
2024/01/31 06:35:41;;;;;;;5.63;5.13;;;2.40;99.90;;;;;;5060782;28;20217;-76
2024/01/31 06:38:08;;;;;;;4.70;4.40;;;2.40;99.90;;;;;;5062614;28;20225;-77
2024/01/31 06:40:37;;;;;;;4.53;4.22;;;2.40;99.90;;;;;;5055695;28;20267;-77
2024/01/31 06:43:04;;;;;;;4.72;4.43;;;2.50;99.90;;;;;;5062165;28;20657;-77
2024/01/31 06:45:31;;;;;;;4.85;4.55;;;2.50;99.90;;;;;;5059151;28;20226;-76
2024/01/31 06:47:58;;;;;;;5.30;4.90;;;2.50;99.90;;;;;;5056622;28;20660;-77
2024/01/31 06:50:25;;;;;;;4.72;4.43;;;2.50;99.90;;;;;;5064841;28;20234;-76
2024/01/31 06:52:51;;;;;;;4.68;4.38;;;2.50;99.90;;;;;;5060266;28;20243;-76
2024/01/31 06:55:18;;;;;;;4.68;4.35;;;2.50;99.90;;;;;;5060893;28;20190;-77
2024/01/31 06:57:47;;;;;;;5.20;4.80;;;2.50;99.90;;;;;;5061559;28;20252;-77
2024/01/31 07:00:15;;;;;;;4.90;4.60;;;2.50;99.90;;;;;;5061209;28;20668;-77
2024/01/31 07:02:42;;;;;;;4.90;4.50;;;2.50;99.90;;;;;;5061959;28;20264;-77
2024/01/31 07:05:09;;;;;;;4.80;4.47;;;2.60;99.90;;;;;;5059107;28;20202;-77
2024/01/31 07:07:36;;;;;;;4.53;4.18;;;2.60;99.90;;;;;;5060031;28;20222;-76
2024/01/31 07:10:04;;;;;;;4.85;4.45;;;2.60;99.90;;;;;;5058362;28;20194;-77
2024/01/31 07:12:31;;;;;;;4.30;4.00;;;2.60;99.90;;;;;;5064281;28;20207;-77
2024/01/31 07:14:59;;;;;;;4.72;4.43;;;2.60;99.90;;;;;;5061711;28;20247;-77
2024/01/31 07:17:26;;;;;;;4.43;4.13;;;2.70;99.90;;;;;;5058981;28;21011;-78
2024/01/31 07:19:53;;;;;;;5.30;4.90;;;2.70;99.90;;;;;;5056222;28;20661;-77
2024/01/31 07:22:20;;;;;;;4.43;4.10;;;2.80;99.90;;;;;;5055940;28;20233;-78
2024/01/31 07:24:47;;;;;;;4.82;4.53;;;2.80;99.90;;;;;;5060817;28;20728;-76
2024/01/31 07:27:14;;;;;;;4.97;4.68;;;2.90;99.90;;;;;;5055355;28;20292;-78
2024/01/31 07:29:44;;;;;;;5.13;4.72;;;2.80;99.90;;;;;;5054607;28;20886;-77
2024/01/31 07:32:13;;;;;;;6.30;5.70;;;2.90;99.90;;;;;;5056300;28;20218;-77
2024/01/31 07:34:40;;;;;;;6.32;5.82;;;2.90;99.90;;;;;;5061533;28;20260;-79
2024/01/31 07:37:08;;;;;;;5.43;4.93;;;2.90;99.90;;;;;;5060434;28;20221;-78
2024/01/31 07:39:35;;;;;;;6.38;5.78;;;3.00;99.90;;;;;;5057232;28;20309;-78
2024/01/31 07:42:02;;;;;;;5.97;5.38;;;3.00;99.90;;;;;;5058687;28;20781;-78
2024/01/31 07:44:29;;;;;;;5.70;5.20;;;3.10;99.90;;;;;;5060777;28;20650;-77
2024/01/31 07:46:56;;;;;;;5.85;5.35;;;3.10;99.90;;;;;;5062192;28;20234;-78
2024/01/31 07:49:24;;;;;;;5.80;5.30;;;3.20;99.90;;;;;;5058405;28;20234;-77
2024/01/31 07:51:56;;;;;;;5.70;5.20;;;3.30;99.90;;;;;;5058442;28;20287;-77
2024/01/31 07:54:23;;;;;;;5.50;5.10;;;3.40;99.90;;;;;;5060778;28;20222;-78
2024/01/31 07:56:50;;;;;;;5.90;5.40;;;3.70;99.90;;;;;;5061524;28;20218;-79
2024/01/31 07:59:17;;;;;;;6.43;5.40;;;4.30;99.90;;;;;;5058024;28;20728;-79
2024/01/31 08:01:44;;;;;;;5.32;4.93;;;5.20;99.90;;;;;;5059884;28;20218;-76
2024/01/31 08:04:11;;;;;;;5.00;4.55;;;5.60;99.90;;;;;;5058067;28;20287;-77
2024/01/31 08:06:43;;;;;;;5.32;4.93;;;5.90;99.90;;;;;;5060271;28;20284;-77
2024/01/31 08:09:11;;;;;;;5.80;5.18;;;6.50;99.90;;;;;;5059473;28;20273;-76
2024/01/31 08:11:42;;;;;;;6.88;6.22;;;6.50;99.90;;;;;;5058407;28;20225;-79
2024/01/31 08:14:09;;;;;;;5.65;5.25;;;6.70;99.90;;;;;;5058194;28;20289;-78
2024/01/31 08:16:36;;;;;;;4.65;4.25;;;6.90;99.90;;;;;;5059552;28;20960;-78
2024/01/31 08:19:04;;;;;;;5.88;5.38;;;7.40;99.90;;;;;;5055711;28;20218;-78
2024/01/31 08:21:32;;;;;;;5.65;5.15;;;7.80;99.90;;;;;;5060845;28;20280;-76
2024/01/31 08:24:00;;;;;;;5.63;5.13;;;8.40;99.90;;;;;;5057292;28;20199;-78
2024/01/31 08:26:27;;;;;;;5.07;4.68;;;9.10;99.90;;;;;;5057534;28;20253;-77
2024/01/31 08:28:55;;;;;;;6.22;5.72;;;9.60;99.90;;;;;;5054222;28;20253;-76
2024/01/31 08:31:22;;;;;;;4.95;4.55;;;10.20;99.90;;;;;;5059007;28;20297;-77
2024/01/31 08:33:49;;;;;;;6.00;5.38;;;10.70;99.90;;;;;;5059846;28;21050;-77
2024/01/31 08:36:16;;;;;;;5.40;4.90;;;11.10;99.90;;;;;;5062846;28;20232;-79
2024/01/31 08:38:43;;;;;;;7.57;6.10;;;11.30;99.90;;;;;;5061994;28;20218;-77
2024/01/31 08:41:12;;;;;;;6.88;6.03;;;11.50;99.90;;;;;;5064133;28;20234;-78
2024/01/31 08:43:39;;;;;;;6.07;5.45;;;11.60;99.90;;;;;;5063022;28;20198;-78
2024/01/31 08:46:06;;;;;;;5.97;5.38;;;11.90;99.90;;;;;;5060951;28;20892;-77
2024/01/31 08:48:33;;;;;;;5.70;5.20;;;12.00;99.90;;;;;;5055443;28;20794;-77
2024/01/31 08:51:02;;;;;;;6.05;5.45;;;11.80;99.90;;;;;;5055581;28;20236;-76
2024/01/31 08:53:29;;;;;;;6.15;5.55;;;11.90;99.90;;;;;;5059225;28;20670;-76
2024/01/31 08:55:56;;;;;;;6.55;5.80;;;12.10;99.90;;;;;;5054857;28;20214;-78
2024/01/31 08:58:25;;;;;;;7.25;4.65;;;12.10;99.90;;;;;;5057037;28;20248;-79
2024/01/31 09:00:52;;;;;;;8.15;5.30;;;12.40;99.90;;;;;;5055092;28;20225;-79
2024/01/31 09:03:19;;;;;;;5.57;5.07;;;12.80;99.90;;;;;;5060421;28;20240;-79
2024/01/31 09:05:46;;;;;;;5.07;4.40;;;12.80;99.90;;;;;;5059601;28;20279;-77
2024/01/31 09:08:13;;;;;;;5.30;4.80;;;12.60;99.90;;;;;;5055709;28;20221;-78
2024/01/31 09:10:40;;;;;;;4.95;4.38;;;12.40;99.90;;;;;;5057884;28;20218;-79
2024/01/31 09:13:07;;;;;;;6.65;4.80;;;12.20;99.90;;;;;;5061411;28;20198;-79
2024/01/31 09:15:36;;;;;;;4.70;4.30;;;12.20;99.90;;;;;;5058599;28;20218;-78
2024/01/31 09:18:03;;;;;;;5.78;5.05;;;12.20;99.90;;;;;;5058399;28;20730;-78
2024/01/31 09:20:30;;;;;;;5.43;4.80;;;12.00;99.90;;;;;;5054100;28;20773;-77
2024/01/31 09:22:57;;;;;;;6.50;5.40;;;11.80;99.90;;;;;;5055636;28;21228;-77
2024/01/31 09:25:24;;;;;;;5.03;4.53;;;11.60;99.90;;;;;;5051478;28;20227;-77
2024/01/31 09:27:53;;;;;;;6.00;5.43;;;11.30;99.90;;;;;;5054651;28;20287;-77
2024/01/31 09:30:20;;;;;;;5.85;5.30;;;11.10;99.90;;;;;;5054395;28;20206;-76
2024/01/31 09:32:48;;;;;;;6.00;5.35;;;11.10;99.90;;;;;;5058883;28;20257;-76
2024/01/31 09:35:15;;;;;;;7.15;5.40;;;11.00;99.90;;;;;;5056186;28;20214;-76
2024/01/31 09:37:42;;;;;;;5.22;4.72;;;11.00;99.90;;;;;;5055888;28;20269;-76
2024/01/31 09:40:14;;;;;;;5.85;5.35;;;11.20;99.90;;;;;;5055452;28;20206;-75
2024/01/31 09:42:41;;;;;;;9.02;5.60;;;11.70;99.90;;;;;;5063053;28;20203;-76
2024/01/31 09:45:11;;;;;;;6.60;5.93;;;11.90;99.90;;;;;;5058299;28;20673;-76
2024/01/31 09:47:41;;;;;;;7.20;5.95;;;12.00;99.90;;;;;;5053383;28;20932;-76
2024/01/31 09:50:10;;;;;;;6.50;5.75;;;12.00;99.90;;;;;;5055706;28;20919;-76
2024/01/31 09:52:40;;;;;;;6.63;5.93;;;11.50;99.90;;;;;;5055945;28;20738;-77
2024/01/31 09:55:10;;;;;;;7.68;5.85;;;11.40;99.90;;;;;;5053634;28;20739;-76
2024/01/31 09:57:39;;;;;;;7.60;6.82;;;11.50;99.90;;;;;;5056959;28;20250;-77
2024/01/31 10:00:08;;;;;;;6.85;6.20;;;11.50;99.90;;;;;;5050377;28;20204;-76
2024/01/31 10:02:37;;;;;;;6.85;5.90;;;11.50;99.90;;;;;;5052459;28;20205;-77
2024/01/31 10:05:06;;;;;;;6.68;6.00;;;11.50;99.90;;;;;;5056187;28;20297;-77
2024/01/31 10:07:38;;;;;;;8.50;6.40;;;11.30;99.90;;;;;;5056583;28;20659;-77
2024/01/31 10:10:06;;;;;;;5.97;5.38;;;11.40;99.90;;;;;;5052487;28;20199;-77
2024/01/31 10:12:33;;;;;;;6.43;5.75;;;11.50;99.90;;;;;;5064699;28;20230;-76
2024/01/31 10:15:00;;;;;;;6.10;5.50;;;11.60;99.90;;;;;;5051360;28;21021;-76
2024/01/31 10:17:27;;;;;;;5.40;4.90;;;11.50;99.90;;;;;;5053953;28;20214;-77
2024/01/31 10:19:54;;;;;;;6.25;5.68;;;11.30;99.90;;;;;;5052683;28;20211;-76
2024/01/31 10:22:22;;;;;;;6.20;5.60;;;11.30;99.90;;;;;;5053836;28;20716;-76
2024/01/31 10:24:51;;;;;;;5.60;5.10;;;11.30;99.90;;;;;;5053927;28;20585;-77
2024/01/31 10:27:20;;;;;;;6.15;5.55;;;11.30;99.90;;;;;;5050916;28;22000;-76
2024/01/31 10:29:47;;;;;;;6.10;5.43;;;11.40;99.90;;;;;;5056302;28;20282;-76
2024/01/31 10:32:16;;;;;;;7.43;6.28;;;11.50;99.90;;;;;;5052621;28;20329;-76
2024/01/31 10:34:44;;;;;;;6.85;6.13;;;11.60;99.90;;;;;;5054408;28;20206;-76
2024/01/31 10:37:11;;;;;;;6.82;6.20;;;11.70;99.90;;;;;;5052785;28;20222;-77
2024/01/31 10:39:40;;;;;;;7.53;5.88;;;11.60;99.90;;;;;;5055446;28;20218;-76
2024/01/31 10:42:09;;;;;;;6.40;5.80;;;11.30;99.90;;;;;;5053197;28;20222;-76
2024/01/31 10:44:38;;;;;;;6.15;5.65;;;11.00;99.90;;;;;;5057847;28;20198;-76
2024/01/31 10:47:05;;;;;;;6.38;5.40;;;10.90;99.90;;;;;;5051863;28;20936;-76
2024/01/31 10:49:32;;;;;;;5.55;5.05;;;10.70;99.90;;;;;;5056880;28;21916;-78
2024/01/31 10:52:03;;;;;;;6.13;5.40;;;10.50;99.90;;;;;;5070262;28;20276;-76
2024/01/31 10:54:34;;;;;;;6.97;5.80;;;10.50;99.90;;;;;;5069718;28;20209;-76
2024/01/31 10:57:02;;;;;;;6.75;5.57;;;10.40;99.90;;;;;;5068922;28;20872;-76
2024/01/31 10:59:35;;;;;;;6.55;5.85;;;10.20;99.90;;;;;;5073808;28;21016;-76
2024/01/31 11:02:02;;;;;;;6.18;5.57;;;10.10;99.90;;;;;;5075775;28;20282;-76
2024/01/31 11:04:30;;;;;;;6.72;5.22;;;10.10;99.90;;;;;;5074951;28;20214;-76
2024/01/31 11:07:00;;;;;;;5.85;5.25;;;10.10;99.90;;;;;;5076373;28;20283;-77
2024/01/31 11:09:28;;;;;;;5.68;5.07;;;10.10;99.90;;;;;;5073750;28;20245;-78
2024/01/31 11:12:05;;;;;;;6.05;5.45;;;10.20;99.90;;;;;;5069965;28;20226;-76
2024/01/31 11:14:34;;;;;;;5.80;5.20;;;10.30;99.90;;;;;;5076340;28;20193;-76
2024/01/31 11:17:08;;;;;;;5.80;5.20;;;10.30;99.90;;;;;;5077355;28;20225;-76
2024/01/31 11:19:41;;;;;;;6.43;5.82;;;10.20;99.90;;;;;;5070346;28;21632;-76
2024/01/31 11:22:08;;;;;;;6.18;5.53;;;10.10;99.90;;;;;;5074106;28;20291;-76
2024/01/31 11:24:39;;;;;;;5.82;5.32;;;10.10;99.90;;;;;;5072832;28;20251;-76
2024/01/31 11:27:06;;;;;;;5.93;5.32;;;10.10;99.90;;;;;;5065888;28;20248;-76
2024/01/31 11:29:35;;;;;;;6.47;5.30;;;10.00;99.90;;;;;;5071029;28;20282;-74
2024/01/31 11:32:02;;;;;;;5.97;5.47;;;10.00;99.90;;;;;;5070726;28;20214;-75
2024/01/31 11:34:29;;;;;;;6.40;5.43;;;10.30;99.90;;;;;;5070798;28;20676;-75
2024/01/31 11:36:56;;;;;;;6.28;5.65;;;10.50;99.90;;;;;;5068043;28;20613;-76
2024/01/31 11:39:23;;;;;;;6.63;5.28;;;10.70;99.90;;;;;;5073552;28;20217;-76
2024/01/31 11:41:52;;;;;;;5.63;5.13;;;11.00;99.90;;;;;;5070329;28;20225;-77
2024/01/31 11:44:19;;;;;;;8.10;5.88;;;11.30;99.90;;;;;;5074135;28;20321;-77
2024/01/31 11:46:48;;;;;;;8.90;5.68;;;11.50;99.90;;;;;;5065536;28;22179;-76
2024/01/31 11:49:15;;;;;;;6.45;5.15;;;11.50;99.90;;;;;;5072021;28;21446;-77
2024/01/31 11:51:42;;;;;;;6.05;5.45;;;11.60;99.90;;;;;;5068671;28;20920;-76
2024/01/31 11:54:10;;;;;;;6.22;5.53;;;11.60;99.90;;;;;;5076342;28;20224;-76
2024/01/31 11:56:37;;;;;;;5.65;5.15;;;11.70;99.90;;;;;;5072492;28;20276;-76
2024/01/31 11:59:05;;;;;;;6.40;5.00;;;11.70;99.90;;;;;;5072977;28;20544;-76
2024/01/31 12:01:32;;;;;;;5.78;5.18;;;11.60;99.90;;;;;;5071537;28;20266;-76
2024/01/31 12:04:01;;;;;;;5.10;4.60;;;11.50;99.90;;;;;;5074599;28;20263;-75
2024/01/31 12:06:29;;;;;;;4.70;4.22;;;11.30;99.90;;;;;;5067149;28;20256;-76
2024/01/31 12:08:56;;;;;;;5.10;4.57;;;11.30;99.90;;;;;;5068985;28;20887;-77
2024/01/31 12:11:23;;;;;;;5.70;4.50;;;11.30;99.90;;;;;;5068872;28;20304;-77
2024/01/31 12:13:50;;;;;;;4.78;4.38;;;11.20;99.90;;;;;;5068833;28;20193;-76
2024/01/31 12:16:17;;;;;;;5.07;4.63;;;11.10;99.90;;;;;;5072189;28;20313;-75
2024/01/31 12:18:44;;;;;;;6.10;5.35;;;11.00;99.90;;;;;;5068732;28;20264;-76
2024/01/31 12:21:13;;;;;;;6.80;5.78;;;11.00;99.90;;;;;;5068425;28;20232;-75
2024/01/31 12:23:40;;;;;;;5.75;5.22;;;10.80;99.90;;;;;;5071999;28;20224;-76
2024/01/31 12:26:07;;;;;;;5.38;4.68;;;10.70;99.90;;;;;;5071369;28;20290;-76
2024/01/31 12:28:34;;;;;;;4.93;4.45;;;10.80;99.90;;;;;;5066470;28;20274;-75
2024/01/31 12:31:01;;;;;;;4.97;4.53;;;11.00;99.90;;;;;;5067205;28;21091;-75
2024/01/31 12:33:28;;;;;;;6.00;5.40;;;11.20;99.90;;;;;;5074872;28;20205;-75
2024/01/31 12:35:55;;;;;;;5.80;4.68;;;11.30;99.90;;;;;;5071282;28;20217;-75
2024/01/31 12:38:23;;;;;;;6.43;5.05;;;11.50;99.90;;;;;;5069728;28;20229;-76
2024/01/31 12:40:51;;;;;;;5.60;5.10;;;11.50;99.90;;;;;;5072827;28;20244;-76
2024/01/31 12:43:20;;;;;;;10.98;5.00;;;11.60;99.90;;;;;;5075994;28;20209;-76
2024/01/31 12:45:47;;;;;;;6.22;5.25;;;11.70;99.90;;;;;;5073687;28;20227;-75
2024/01/31 12:48:14;;;;;;;5.50;5.00;;;11.80;99.90;;;;;;5074223;28;20278;-76
2024/01/31 12:50:41;;;;;;;5.68;5.15;;;11.80;99.90;;;;;;5075716;28;20643;-76
2024/01/31 12:53:08;;;;;;;5.80;5.20;;;11.80;99.90;;;;;;5076923;28;20844;-75
2024/01/31 12:55:36;;;;;;;5.70;5.10;;;11.60;99.90;;;;;;5072946;28;20243;-76